createdAt,value
2023-04-02T00:00:20.250Z,77.33
2023-04-02T00:03:10.904Z,77.07
2023-04-02T00:05:44.240Z,77.49
2023-04-02T00:08:23.854Z,77.74
2023-04-02T00:10:56.283Z,77.49
2023-04-02T00:13:35.039Z,77.39
2023-04-02T00:16:08.574Z,77.80
2023-04-02T00:18:44.310Z,77.74
2023-04-02T00:21:21.358Z,77.71
2023-04-02T00:23:53.504Z,77.49
2023-04-02T00:26:32.800Z,77.70
2023-04-02T00:29:05.386Z,77.44
2023-04-02T00:31:39.002Z,77.28
2023-04-02T00:34:15.182Z,77.08
2023-04-02T00:36:46.486Z,77.11
2023-04-02T00:39:22.556Z,76.95
2023-04-02T00:41:56.605Z,77.31
2023-04-02T00:44:30.103Z,77.02
2023-04-02T00:47:04.470Z,77.03
2023-04-02T00:49:38.889Z,77.22
2023-04-02T00:52:13.468Z,76.97
2023-04-02T00:54:48.481Z,76.65
2023-04-02T00:57:22.962Z,76.38
2023-04-02T00:59:58.036Z,76.58
2023-04-02T01:02:32.582Z,76.62
2023-04-02T01:05:19.848Z,76.47
2023-04-02T01:08:02.300Z,76.28
2023-04-02T01:10:50.370Z,76.27
2023-04-02T01:13:30.164Z,75.85
2023-04-02T01:16:06.545Z,76.03
2023-04-02T01:18:48.498Z,76.22
2023-04-02T01:21:34.171Z,76.10
2023-04-02T01:24:07.456Z,75.56
2023-04-02T01:26:52.300Z,76.10
2023-04-02T01:29:25.680Z,76.00
2023-04-02T01:32:00.324Z,76.12
2023-04-02T01:34:31.950Z,76.02
2023-04-02T01:37:13.087Z,75.88
2023-04-02T01:39:49.180Z,76.05
2023-04-02T01:42:25.449Z,75.88
2023-04-02T01:45:03.049Z,76.23
2023-04-02T01:47:34.615Z,76.12
2023-04-02T01:50:20.489Z,76.10
2023-04-02T01:52:54.050Z,75.71
2023-04-02T01:55:33.993Z,75.72
2023-04-02T01:58:05.013Z,75.50
2023-04-02T02:00:35.297Z,75.57
2023-04-02T02:03:07.119Z,75.49
2023-04-02T02:05:37.995Z,75.36
2023-04-02T02:08:20.589Z,75.50
2023-04-02T02:10:51.521Z,75.38
2023-04-02T02:13:22.624Z,75.61
2023-04-02T02:15:51.805Z,75.69
2023-04-02T02:18:23.661Z,75.36
2023-04-02T02:20:56.510Z,75.48
2023-04-02T02:23:29.989Z,75.67
2023-04-02T02:26:01.269Z,75.06
2023-04-02T02:28:36.165Z,75.30
2023-04-02T02:31:12.758Z,75.06
2023-04-02T02:33:46.957Z,74.74
2023-04-02T02:36:24.652Z,75.25
2023-04-02T02:38:58.364Z,74.94
2023-04-02T02:41:35.487Z,75.01
2023-04-02T02:44:14.414Z,74.86
2023-04-02T02:46:49.048Z,74.63
2023-04-02T02:49:22.283Z,74.96
2023-04-02T02:51:58.090Z,74.90
2023-04-02T02:54:30.219Z,75.06
2023-04-02T02:57:04.062Z,75.15
2023-04-02T02:59:35.576Z,74.95
2023-04-02T03:02:07.531Z,74.78
2023-04-02T03:04:38.535Z,75.15
2023-04-02T03:07:09.480Z,75.01
2023-04-02T03:09:46.944Z,75.07
2023-04-02T03:12:34.965Z,75.16
2023-04-02T03:15:15.055Z,75.03
2023-04-02T03:17:51.232Z,74.99
2023-04-02T03:20:37.104Z,74.93
2023-04-02T03:23:15.035Z,75.11
2023-04-02T03:25:51.079Z,74.90
2023-04-02T03:28:27.254Z,74.60
2023-04-02T03:31:03.049Z,74.91
2023-04-02T03:33:37.781Z,74.64
2023-04-02T03:36:18.330Z,74.73
2023-04-02T03:38:52.403Z,75.10
2023-04-02T03:41:28.479Z,74.78
2023-04-02T03:44:01.544Z,75.20
2023-04-02T03:46:37.480Z,75.10
2023-04-02T03:49:13.534Z,74.28
2023-04-02T03:51:57.566Z,74.29
2023-04-02T03:54:29.390Z,74.11
2023-04-02T03:57:00.911Z,74.32
2023-04-02T03:59:39.910Z,73.95
2023-04-02T04:02:33.108Z,73.39
2023-04-02T04:05:05.820Z,72.69
2023-04-02T04:07:41.105Z,72.84
2023-04-02T04:10:21.138Z,73.08
2023-04-02T04:12:54.723Z,73.16
2023-04-02T04:15:30.905Z,73.46
2023-04-02T04:18:09.802Z,73.41
2023-04-02T04:20:50.186Z,73.05
2023-04-02T04:23:24.186Z,72.68
2023-04-02T04:26:02.029Z,72.96
2023-04-02T04:28:42.390Z,72.67
2023-04-02T04:31:21.167Z,73.28
2023-04-02T04:33:57.144Z,73.06
2023-04-02T04:36:31.478Z,73.19
2023-04-02T04:39:08.842Z,72.21
2023-04-02T04:41:42.422Z,72.82
2023-04-02T04:44:19.049Z,73.12
2023-04-02T04:46:57.935Z,73.25
2023-04-02T04:49:32.796Z,72.89
2023-04-02T04:52:12.494Z,72.24
2023-04-02T04:54:43.207Z,71.97
2023-04-02T04:57:27.208Z,71.68
2023-04-02T05:00:03.237Z,71.93
2023-04-02T05:02:42.802Z,72.01
2023-04-02T05:05:21.886Z,72.25
2023-04-02T05:07:59.822Z,72.26
2023-04-02T05:10:38.347Z,71.68
2023-04-02T05:13:16.176Z,71.66
2023-04-02T05:15:55.080Z,71.60
2023-04-02T05:18:39.071Z,71.47
2023-04-02T05:21:18.182Z,71.14
2023-04-02T05:23:53.561Z,71.08
2023-04-02T05:26:30.065Z,70.94
2023-04-02T05:29:14.803Z,71.27
2023-04-02T05:31:53.689Z,71.02
2023-04-02T05:34:29.703Z,71.41
2023-04-02T05:37:27.142Z,71.15
2023-04-02T05:41:20.817Z,71.60
2023-04-02T05:45:02.077Z,70.96
2023-04-02T05:48:30.603Z,70.53
2023-04-02T05:51:02.583Z,70.74
2023-04-02T05:53:38.786Z,70.55
2023-04-02T05:56:16.130Z,70.68
2023-04-02T05:58:51.064Z,70.39
2023-04-02T06:01:32.642Z,70.44
2023-04-02T06:04:12.699Z,70.50
2023-04-02T06:06:52.526Z,69.94
2023-04-02T06:09:33.785Z,69.67
2023-04-02T06:12:09.404Z,69.34
2023-04-02T06:14:40.110Z,69.22
2023-04-02T06:17:14.409Z,68.43
2023-04-02T06:19:45.706Z,67.98
2023-04-02T06:22:24.277Z,67.62
2023-04-02T06:24:59.275Z,67.08
2023-04-02T06:27:30.775Z,67.15
2023-04-02T06:30:30.291Z,66.82
2023-04-02T06:32:58.846Z,67.61
2023-04-02T06:35:30.204Z,65.51
2023-04-02T06:38:04.992Z,64.67
2023-04-02T06:40:42.423Z,64.67
2023-04-02T06:43:21.115Z,65.54
2023-04-02T06:45:55.610Z,66.03
2023-04-02T06:48:28.267Z,65.77
2023-04-02T06:51:05.415Z,65.28
2023-04-02T06:53:45.760Z,65.41
2023-04-02T06:56:34.130Z,66.11
2023-04-02T06:59:26.504Z,66.54
2023-04-02T07:02:01.604Z,67.09
2023-04-02T07:04:33.008Z,67.44
2023-04-02T07:07:05.883Z,66.07
2023-04-02T07:09:41.881Z,66.12
2023-04-02T07:12:14.426Z,66.25
2023-04-02T07:14:45.194Z,66.36
2023-04-02T07:17:18.206Z,66.35
2023-04-02T07:19:50.678Z,66.68
2023-04-02T07:22:21.852Z,66.32
2023-04-02T07:24:52.730Z,66.79
2023-04-02T07:27:43.602Z,65.85
2023-04-02T07:30:18.672Z,66.09
2023-04-02T07:32:49.629Z,66.36
2023-04-02T07:35:23.185Z,66.43
2023-04-02T07:38:04.195Z,66.87
2023-04-02T07:40:43.529Z,67.39
2023-04-02T07:43:14.482Z,66.63
2023-04-02T07:45:45.342Z,66.94
2023-04-02T07:48:16.131Z,66.77
2023-04-02T07:50:46.988Z,66.10
2023-04-02T07:53:29.133Z,65.07
2023-04-02T07:56:04.813Z,65.41
2023-04-02T07:58:40.628Z,64.53
2023-04-02T08:01:21.664Z,64.00
2023-04-02T08:03:54.447Z,64.49
2023-04-02T08:06:28.687Z,64.56
2023-04-02T08:09:02.204Z,64.07
2023-04-02T08:11:37.141Z,64.57
2023-04-02T08:14:11.192Z,64.27
2023-04-02T08:17:02.574Z,63.92
2023-04-02T08:19:36.915Z,64.28
2023-04-02T08:22:17.456Z,63.50
2023-04-02T08:24:48.165Z,64.14
2023-04-02T08:27:18.935Z,62.87
2023-04-02T08:29:49.864Z,63.43
2023-04-02T08:32:20.544Z,63.05
2023-04-02T08:34:51.242Z,63.64
2023-04-02T08:37:22.048Z,63.40
2023-04-02T08:39:53.455Z,61.28
2023-04-02T08:42:34.861Z,60.76
2023-04-02T08:47:53.606Z,61.86
2023-04-02T08:50:31.605Z,60.68
2023-04-02T08:53:05.280Z,61.98
2023-04-02T08:55:42.123Z,61.01
2023-04-02T08:58:26.271Z,61.23
2023-04-02T09:01:01.709Z,61.59
2023-04-02T09:03:40.141Z,59.82
2023-04-02T09:06:16.540Z,59.31
2023-04-02T09:08:49.944Z,59.58
2023-04-02T09:11:27.483Z,59.44
2023-04-02T09:13:59.988Z,60.71
2023-04-02T09:16:43.144Z,59.50
2023-04-02T09:19:19.402Z,59.58
2023-04-02T09:22:00.565Z,58.44
2023-04-02T09:24:29.649Z,57.10
2023-04-02T09:27:03.414Z,57.95
2023-04-02T09:29:45.866Z,57.25
2023-04-02T09:32:27.282Z,57.29
2023-04-02T09:35:22.443Z,57.65
2023-04-02T09:38:29.009Z,57.41
2023-04-02T09:41:02.213Z,56.60
2023-04-02T09:43:35.103Z,55.78
2023-04-02T09:46:16.346Z,57.14
2023-04-02T09:48:52.237Z,55.71
2023-04-02T09:51:25.384Z,55.73
2023-04-02T09:54:12.709Z,56.92
2023-04-02T09:57:01.028Z,55.52
2023-04-02T09:59:31.841Z,56.62
2023-04-02T10:02:03.353Z,55.72
2023-04-02T10:04:40.128Z,56.49
2023-04-02T10:07:32.614Z,56.91
2023-04-02T10:10:15.698Z,57.12
2023-04-02T10:12:49.162Z,57.16
2023-04-02T10:15:26.047Z,57.88
2023-04-02T10:18:06.680Z,57.84
2023-04-02T10:20:50.452Z,57.44
2023-04-02T10:23:26.981Z,57.94
2023-04-02T10:26:07.134Z,57.98
2023-04-02T10:28:49.374Z,57.71
2023-04-02T10:31:26.267Z,58.23
2023-04-02T10:34:04.595Z,57.61
2023-04-02T10:36:49.524Z,57.97
2023-04-02T10:39:24.639Z,55.98
2023-04-02T10:42:03.499Z,57.33
2023-04-02T10:44:43.521Z,56.85
2023-04-02T10:47:29.711Z,55.55
2023-04-02T10:50:18.605Z,55.23
2023-04-02T10:52:56.626Z,55.94
2023-04-02T10:55:32.202Z,55.68
2023-04-02T10:58:15.141Z,56.21
2023-04-02T11:00:47.374Z,56.97
2023-04-02T11:03:24.298Z,56.12
2023-04-02T11:05:59.288Z,56.34
2023-04-02T11:08:40.413Z,57.26
2023-04-02T11:11:13.464Z,56.06
2023-04-02T11:13:52.170Z,56.78
2023-04-02T11:16:23.616Z,56.88
2023-04-02T11:19:24.201Z,55.63
2023-04-02T11:22:00.324Z,55.47
2023-04-02T11:24:45.705Z,55.51
2023-04-02T11:27:24.608Z,55.25
2023-04-02T11:30:01.537Z,55.69
2023-04-02T11:32:43.106Z,55.13
2023-04-02T11:35:36.087Z,55.75
2023-04-02T11:38:47.580Z,55.10
2023-04-02T11:42:01.780Z,56.33
2023-04-02T11:44:32.522Z,57.08
2023-04-02T11:47:20.563Z,56.46
2023-04-02T11:50:35.332Z,55.63
2023-04-02T11:53:18.829Z,56.05
2023-04-02T11:56:08.419Z,55.78
2023-04-02T11:59:05.242Z,56.19
2023-04-02T12:01:55.582Z,56.39
2023-04-02T12:05:03.334Z,55.71
2023-04-02T12:08:10.740Z,55.73
2023-04-02T12:10:55.160Z,55.83
2023-04-02T12:13:52.509Z,56.59
2023-04-02T12:16:25.702Z,56.55
2023-04-02T12:18:56.718Z,56.76
2023-04-02T12:21:29.374Z,56.50
2023-04-02T12:24:00.948Z,56.13
2023-04-02T12:26:34.658Z,56.48
2023-04-02T12:29:24.724Z,56.37
2023-04-02T12:31:57.212Z,56.43
2023-04-02T12:34:30.659Z,56.63
2023-04-02T12:37:05.097Z,57.34
2023-04-02T12:39:36.358Z,57.23
2023-04-02T12:42:24.393Z,57.10
2023-04-02T12:44:57.754Z,56.80
2023-04-02T12:47:29.551Z,56.53
2023-04-02T12:50:25.481Z,57.44
2023-04-02T12:52:55.285Z,57.41
2023-04-02T12:55:28.951Z,58.01
2023-04-02T13:00:37.248Z,57.65
2023-04-02T13:03:22.327Z,58.14
2023-04-02T13:05:55.719Z,58.12
2023-04-02T13:08:30.827Z,58.50
2023-04-02T13:11:04.057Z,58.65
2023-04-02T13:13:38.559Z,58.81
2023-04-02T13:16:26.776Z,58.79
2023-04-02T13:19:23.957Z,58.69
2023-04-02T13:21:59.585Z,58.54
2023-04-02T13:24:32.288Z,58.26
2023-04-02T13:27:04.066Z,57.89
2023-04-02T13:29:36.029Z,57.35
2023-04-02T13:32:12.725Z,57.40
2023-04-02T13:34:47.213Z,56.84
2023-04-02T13:37:19.306Z,55.72
2023-04-02T13:39:49.979Z,55.53
2023-04-02T13:42:23.585Z,55.57
2023-04-02T13:44:54.294Z,55.46
2023-04-02T13:47:25.014Z,54.43
2023-04-02T13:49:55.615Z,54.51
2023-04-02T13:52:26.266Z,52.93
2023-04-02T13:54:58.128Z,53.01
2023-04-02T13:57:28.884Z,52.63
2023-04-02T13:59:59.619Z,53.30
2023-04-02T14:02:31.258Z,53.18
2023-04-02T14:05:28.814Z,51.07
2023-04-02T14:08:09.112Z,50.88
2023-04-02T14:10:58.322Z,50.13
2023-04-02T14:13:57.161Z,50.58
2023-04-02T14:16:42.240Z,49.69
2023-04-02T14:19:24.846Z,50.50
2023-04-02T14:22:05.699Z,50.76
2023-04-02T14:24:46.546Z,52.15
2023-04-02T14:27:29.432Z,51.94
2023-04-02T14:30:14.887Z,52.18
2023-04-02T14:32:57.468Z,52.43
2023-04-02T14:35:33.907Z,51.63
2023-04-02T14:38:16.391Z,50.49
2023-04-02T14:40:56.694Z,48.66
2023-04-02T14:43:31.202Z,48.90
2023-04-02T14:46:03.709Z,48.51
2023-04-02T14:48:45.690Z,48.83
2023-04-02T14:51:23.686Z,49.10
2023-04-02T14:54:04.261Z,49.00
2023-04-02T14:56:44.362Z,49.66
2023-04-02T14:59:29.185Z,47.68
2023-04-02T15:02:03.591Z,47.90
2023-04-02T15:04:38.138Z,47.44
2023-04-02T15:07:17.798Z,47.73
2023-04-02T15:09:53.226Z,49.18
2023-04-02T15:12:28.785Z,48.70
2023-04-02T15:15:03.882Z,47.88
2023-04-02T15:17:34.669Z,47.68
2023-04-02T15:20:15.358Z,45.17
2023-04-02T15:23:01.001Z,46.29
2023-04-02T15:25:39.097Z,46.39
2023-04-02T15:28:19.959Z,47.52
2023-04-02T15:30:54.265Z,47.48
2023-04-02T15:33:48.401Z,47.86
2023-04-02T15:36:43.944Z,47.20
2023-04-02T15:39:29.468Z,47.60
2023-04-02T15:42:16.409Z,46.68
2023-04-02T15:44:59.073Z,47.47
2023-04-02T15:47:40.149Z,47.58
2023-04-02T15:50:36.023Z,47.85
2023-04-02T15:53:19.359Z,48.99
2023-04-02T15:55:54.840Z,48.66
2023-04-02T15:58:39.461Z,48.81
2023-04-02T16:01:17.687Z,48.03
2023-04-02T16:04:03.817Z,47.53
2023-04-02T16:06:45.734Z,46.61
2023-04-02T16:09:26.694Z,47.24
2023-04-02T16:12:08.943Z,48.17
2023-04-02T16:15:00.472Z,46.12
2023-04-02T16:17:37.126Z,46.15
2023-04-02T16:20:31.167Z,47.66
2023-04-02T16:23:07.087Z,48.03
2023-04-02T16:25:45.847Z,47.77
2023-04-02T16:28:24.001Z,48.72
2023-04-02T16:31:02.801Z,48.72
2023-04-02T16:33:43.876Z,48.06
2023-04-02T16:36:25.024Z,47.94
2023-04-02T16:38:59.469Z,48.57
2023-04-02T16:41:48.746Z,47.73
2023-04-02T16:44:29.481Z,47.59
2023-04-02T16:47:18.255Z,47.59
2023-04-02T16:49:56.837Z,46.72
2023-04-02T16:52:43.025Z,47.22
2023-04-02T16:55:36.900Z,47.58
2023-04-02T16:58:22.998Z,47.23
2023-04-02T17:00:58.547Z,46.95
2023-04-02T17:04:00.709Z,47.73
2023-04-02T17:06:42.214Z,46.09
2023-04-02T17:09:23.908Z,45.39
2023-04-02T17:12:22.447Z,46.96
2023-04-02T17:14:55.221Z,45.41
2023-04-02T17:17:26.502Z,45.53
2023-04-02T17:20:01.580Z,44.75
2023-04-02T17:22:33.191Z,44.84
2023-04-02T17:25:12.649Z,44.80
2023-04-02T17:27:52.341Z,44.70
2023-04-02T17:30:29.956Z,44.84
2023-04-02T17:33:00.742Z,44.59
2023-04-02T17:35:41.871Z,45.76
2023-04-02T17:38:17.344Z,45.36
2023-04-02T17:40:54.185Z,45.44
2023-04-02T17:43:41.287Z,45.58
2023-04-02T17:46:22.515Z,46.12
2023-04-02T17:49:00.445Z,46.28
2023-04-02T17:51:39.929Z,46.69
2023-04-02T17:54:28.504Z,46.11
2023-04-02T17:57:28.395Z,45.52
2023-04-02T18:00:41.858Z,45.19
2023-04-02T18:03:51.268Z,46.21
2023-04-02T18:06:27.828Z,45.48
2023-04-02T18:09:36.768Z,45.93
2023-04-02T18:12:24.824Z,46.30
2023-04-02T18:15:09.325Z,46.32
2023-04-02T18:17:54.219Z,46.33
2023-04-02T18:20:32.873Z,46.42
2023-04-02T18:23:11.195Z,46.07
2023-04-02T18:25:54.163Z,45.90
2023-04-02T18:28:46.743Z,46.02
2023-04-02T18:31:27.143Z,46.15
2023-04-02T18:34:45.645Z,46.24
2023-04-02T18:37:23.881Z,46.14
2023-04-02T18:40:37.150Z,46.72
2023-04-02T18:43:27.529Z,46.75
2023-04-02T18:46:04.984Z,47.15
2023-04-02T18:48:45.067Z,47.49
2023-04-02T18:51:21.110Z,47.68
2023-04-02T18:53:55.202Z,47.98
2023-04-02T18:56:28.999Z,48.06
2023-04-02T18:59:12.449Z,48.28
2023-04-02T19:01:48.958Z,48.20
2023-04-02T19:04:25.393Z,48.49
2023-04-02T19:07:02.960Z,48.44
2023-04-02T19:09:38.306Z,48.54
2023-04-02T19:12:19.933Z,48.84
2023-04-02T19:14:52.471Z,49.16
2023-04-02T19:17:29.736Z,49.38
2023-04-02T19:20:07.982Z,49.51
2023-04-02T19:22:46.054Z,49.81
2023-04-02T19:25:41.193Z,50.13
2023-04-02T19:28:24.098Z,50.21
2023-04-02T19:31:30.833Z,50.38
2023-04-02T19:34:09.219Z,50.36
2023-04-02T19:36:51.227Z,50.16
2023-04-02T19:39:59.163Z,50.22
2023-04-02T19:42:42.419Z,50.22
2023-04-02T19:45:40.120Z,50.58
2023-04-02T19:48:16.874Z,50.62
2023-04-02T19:50:48.847Z,50.73
2023-04-02T19:53:20.018Z,50.99
2023-04-02T19:55:49.119Z,51.10
2023-04-02T19:58:26.180Z,51.23
2023-04-02T20:00:58.789Z,51.26
2023-04-02T20:03:30.166Z,51.28
2023-04-02T20:06:00.858Z,50.99
2023-04-02T20:08:33.062Z,51.09
2023-04-02T20:11:04.123Z,50.89
2023-04-02T20:13:33.292Z,50.68
2023-04-02T20:16:05.845Z,50.62
2023-04-02T20:18:36.563Z,50.40
2023-04-02T20:21:08.410Z,50.50
2023-04-02T20:23:39.117Z,50.57
2023-04-02T20:26:10.571Z,50.34
2023-04-02T20:28:41.321Z,50.41
2023-04-02T20:31:14.037Z,50.44
2023-04-02T20:33:45.184Z,50.25
2023-04-02T20:36:17.968Z,50.36
2023-04-02T20:38:48.625Z,50.53
2023-04-02T20:41:19.837Z,50.59
2023-04-02T20:43:50.521Z,50.64
2023-04-02T20:46:21.198Z,50.68
2023-04-02T20:48:51.851Z,50.88
2023-04-02T20:51:22.664Z,51.11
2023-04-02T20:53:53.432Z,51.07
2023-04-02T20:56:27.263Z,51.21
2023-04-02T20:58:57.935Z,51.31
2023-04-02T21:01:30.970Z,51.32
2023-04-02T21:04:03.524Z,51.49
2023-04-02T21:06:36.561Z,51.74
2023-04-02T21:09:11.248Z,51.69
2023-04-02T21:11:41.989Z,51.74
2023-04-02T21:14:13.102Z,51.69
2023-04-02T21:16:42.196Z,51.95
2023-04-02T21:19:13.016Z,52.03
2023-04-02T21:21:43.689Z,52.17
2023-04-02T21:24:14.419Z,52.15
2023-04-02T21:26:45.066Z,52.58
2023-04-02T21:29:16.481Z,52.33
2023-04-02T21:31:47.276Z,52.45
2023-04-02T21:34:28.583Z,52.54
2023-04-02T21:36:59.277Z,52.76
2023-04-02T21:39:29.961Z,52.71
2023-04-02T21:42:01.616Z,52.87
2023-04-02T21:44:32.329Z,53.32
2023-04-02T21:47:03.054Z,53.42
2023-04-02T21:49:33.753Z,53.75
2023-04-02T21:52:04.514Z,54.19
2023-04-02T21:54:35.127Z,54.55
2023-04-02T21:57:05.929Z,54.82
2023-04-02T21:59:36.721Z,54.89
2023-04-02T22:02:07.382Z,55.27
2023-04-02T22:04:38.003Z,55.32
2023-04-02T22:07:11.511Z,55.61
2023-04-02T22:09:52.064Z,55.94
2023-04-02T22:12:22.907Z,56.03
2023-04-02T22:14:53.604Z,56.18
2023-04-02T22:17:24.313Z,56.15
2023-04-02T22:19:57.482Z,56.39
2023-04-02T22:22:28.125Z,57.03
2023-04-02T22:24:58.861Z,57.07
2023-04-02T22:27:29.560Z,57.44
2023-04-02T22:30:00.219Z,57.76
2023-04-02T22:32:30.968Z,58.20
2023-04-02T22:35:01.667Z,58.44
2023-04-02T22:37:32.508Z,58.48
2023-04-02T22:40:03.382Z,58.87
2023-04-02T22:42:34.604Z,59.19
2023-04-02T22:45:06.368Z,59.25
2023-04-02T22:47:37.102Z,59.36
2023-04-02T22:50:09.224Z,59.35
2023-04-02T22:52:39.861Z,59.39
2023-04-02T22:55:13.688Z,59.03
2023-04-02T22:57:44.748Z,59.92
2023-04-02T23:00:15.636Z,60.13
2023-04-02T23:02:46.361Z,59.93
2023-04-02T23:05:17.267Z,59.99
2023-04-02T23:07:48.944Z,60.74
2023-04-02T23:10:19.793Z,60.65
2023-04-02T23:12:50.587Z,60.77
2023-04-02T23:15:21.175Z,60.49
2023-04-02T23:17:51.880Z,60.99
2023-04-02T23:20:22.532Z,61.00
2023-04-02T23:22:53.184Z,61.06
2023-04-02T23:25:23.809Z,60.91
2023-04-02T23:27:54.465Z,61.24
2023-04-02T23:30:25.191Z,61.37
2023-04-02T23:32:55.884Z,61.30
2023-04-02T23:35:26.616Z,62.14
2023-04-02T23:37:57.283Z,61.52
2023-04-02T23:40:27.983Z,61.29
2023-04-02T23:43:05.407Z,61.26
2023-04-02T23:45:36.054Z,61.48
2023-04-02T23:48:08.395Z,61.71
2023-04-02T23:50:39.204Z,61.92
2023-04-02T23:53:09.909Z,63.06
2023-04-02T23:55:40.721Z,62.59
2023-04-02T23:58:11.461Z,62.37
